sensor_id;sensor_type;location;lat;lon;timestamp;P1;durP1;ratioP1;P2;durP2;ratioP2
47749;SDS011;49810;48.160;10.812;2023-07-02T00:00:05;7.90;;;5.90;;
47749;SDS011;49810;48.160;10.812;2023-07-02T00:02:36;8.38;;;5.95;;
47749;SDS011;49810;48.160;10.812;2023-07-02T00:05:06;8.15;;;5.75;;
47749;SDS011;49810;48.160;10.812;2023-07-02T00:07:34;7.03;;;5.20;;
47749;SDS011;49810;48.160;10.812;2023-07-02T00:10:03;6.68;;;5.32;;
47749;SDS011;49810;48.160;10.812;2023-07-02T00:12:32;7.53;;;5.70;;
47749;SDS011;49810;48.160;10.812;2023-07-02T00:15:01;6.80;;;5.25;;
47749;SDS011;49810;48.160;10.812;2023-07-02T00:17:30;7.82;;;5.53;;
47749;SDS011;49810;48.160;10.812;2023-07-02T00:19:58;6.72;;;5.38;;
47749;SDS011;49810;48.160;10.812;2023-07-02T00:22:30;8.35;;;5.57;;
47749;SDS011;49810;48.160;10.812;2023-07-02T00:25:03;7.38;;;5.32;;
47749;SDS011;49810;48.160;10.812;2023-07-02T00:27:31;8.77;;;6.20;;
47749;SDS011;49810;48.160;10.812;2023-07-02T00:29:59;6.50;;;4.53;;
47749;SDS011;49810;48.160;10.812;2023-07-02T00:32:29;7.00;;;5.10;;
47749;SDS011;49810;48.160;10.812;2023-07-02T00:34:58;6.68;;;4.45;;
47749;SDS011;49810;48.160;10.812;2023-07-02T00:37:26;6.22;;;4.35;;
47749;SDS011;49810;48.160;10.812;2023-07-02T00:39:54;7.00;;;4.50;;
47749;SDS011;49810;48.160;10.812;2023-07-02T00:42:22;9.10;;;4.47;;
47749;SDS011;49810;48.160;10.812;2023-07-02T00:44:50;6.95;;;4.47;;
47749;SDS011;49810;48.160;10.812;2023-07-02T00:47:19;6.35;;;4.53;;
47749;SDS011;49810;48.160;10.812;2023-07-02T00:49:48;8.23;;;4.55;;
47749;SDS011;49810;48.160;10.812;2023-07-02T00:52:16;6.97;;;4.47;;
47749;SDS011;49810;48.160;10.812;2023-07-02T00:54:46;8.93;;;4.28;;
47749;SDS011;49810;48.160;10.812;2023-07-02T00:57:15;5.55;;;3.78;;
47749;SDS011;49810;48.160;10.812;2023-07-02T00:59:43;5.57;;;4.10;;
47749;SDS011;49810;48.160;10.812;2023-07-02T01:02:11;5.97;;;3.95;;
47749;SDS011;49810;48.160;10.812;2023-07-02T01:04:39;6.03;;;4.00;;
47749;SDS011;49810;48.160;10.812;2023-07-02T01:07:09;5.90;;;4.20;;
47749;SDS011;49810;48.160;10.812;2023-07-02T01:09:37;7.50;;;3.63;;
47749;SDS011;49810;48.160;10.812;2023-07-02T01:12:07;6.10;;;4.00;;
47749;SDS011;49810;48.160;10.812;2023-07-02T01:14:40;6.63;;;4.32;;
47749;SDS011;49810;48.160;10.812;2023-07-02T01:17:09;5.55;;;3.95;;
47749;SDS011;49810;48.160;10.812;2023-07-02T01:19:43;8.82;;;3.90;;
47749;SDS011;49810;48.160;10.812;2023-07-02T01:22:12;6.57;;;3.67;;
47749;SDS011;49810;48.160;10.812;2023-07-02T01:24:40;8.13;;;3.83;;
47749;SDS011;49810;48.160;10.812;2023-07-02T01:27:08;5.35;;;4.10;;
47749;SDS011;49810;48.160;10.812;2023-07-02T01:29:37;5.43;;;4.03;;
47749;SDS011;49810;48.160;10.812;2023-07-02T01:32:05;6.10;;;4.03;;
47749;SDS011;49810;48.160;10.812;2023-07-02T01:34:36;6.50;;;4.32;;
47749;SDS011;49810;48.160;10.812;2023-07-02T01:37:05;5.63;;;3.60;;
47749;SDS011;49810;48.160;10.812;2023-07-02T01:39:34;7.38;;;4.20;;
47749;SDS011;49810;48.160;10.812;2023-07-02T01:42:09;7.28;;;4.18;;
47749;SDS011;49810;48.160;10.812;2023-07-02T01:44:37;8.15;;;4.60;;
47749;SDS011;49810;48.160;10.812;2023-07-02T01:47:05;7.13;;;4.40;;
47749;SDS011;49810;48.160;10.812;2023-07-02T01:49:33;6.57;;;4.32;;
47749;SDS011;49810;48.160;10.812;2023-07-02T01:52:01;6.13;;;4.20;;
47749;SDS011;49810;48.160;10.812;2023-07-02T01:54:31;5.85;;;4.55;;
47749;SDS011;49810;48.160;10.812;2023-07-02T01:57:00;7.13;;;4.10;;
47749;SDS011;49810;48.160;10.812;2023-07-02T01:59:28;6.35;;;4.22;;
47749;SDS011;49810;48.160;10.812;2023-07-02T02:01:57;6.88;;;4.45;;
47749;SDS011;49810;48.160;10.812;2023-07-02T02:04:25;6.15;;;4.43;;
47749;SDS011;49810;48.160;10.812;2023-07-02T02:06:53;7.10;;;3.78;;
47749;SDS011;49810;48.160;10.812;2023-07-02T02:09:26;10.40;;;4.15;;
47749;SDS011;49810;48.160;10.812;2023-07-02T02:11:56;5.53;;;4.18;;
47749;SDS011;49810;48.160;10.812;2023-07-02T02:14:24;8.45;;;3.80;;
47749;SDS011;49810;48.160;10.812;2023-07-02T02:16:52;5.45;;;3.55;;
47749;SDS011;49810;48.160;10.812;2023-07-02T02:19:22;5.10;;;3.72;;
47749;SDS011;49810;48.160;10.812;2023-07-02T02:21:50;4.85;;;3.63;;
47749;SDS011;49810;48.160;10.812;2023-07-02T02:24:18;7.78;;;4.93;;
47749;SDS011;49810;48.160;10.812;2023-07-02T02:26:46;5.03;;;4.03;;
47749;SDS011;49810;48.160;10.812;2023-07-02T02:29:15;6.05;;;4.22;;
47749;SDS011;49810;48.160;10.812;2023-07-02T02:31:44;6.63;;;4.20;;
47749;SDS011;49810;48.160;10.812;2023-07-02T02:34:12;6.15;;;4.72;;
47749;SDS011;49810;48.160;10.812;2023-07-02T02:36:40;9.00;;;5.15;;
47749;SDS011;49810;48.160;10.812;2023-07-02T02:39:09;9.23;;;4.53;;
47749;SDS011;49810;48.160;10.812;2023-07-02T02:41:39;9.90;;;4.78;;
47749;SDS011;49810;48.160;10.812;2023-07-02T02:44:07;7.25;;;3.80;;
47749;SDS011;49810;48.160;10.812;2023-07-02T02:46:36;7.32;;;4.25;;
47749;SDS011;49810;48.160;10.812;2023-07-02T02:49:04;10.25;;;5.03;;
47749;SDS011;49810;48.160;10.812;2023-07-02T02:51:32;10.02;;;6.30;;
47749;SDS011;49810;48.160;10.812;2023-07-02T02:54:00;9.18;;;5.57;;
47749;SDS011;49810;48.160;10.812;2023-07-02T02:56:28;8.15;;;5.68;;
47749;SDS011;49810;48.160;10.812;2023-07-02T02:58:56;9.80;;;5.82;;
47749;SDS011;49810;48.160;10.812;2023-07-02T03:01:24;11.95;;;6.25;;
47749;SDS011;49810;48.160;10.812;2023-07-02T03:03:59;9.75;;;6.57;;
47749;SDS011;49810;48.160;10.812;2023-07-02T03:06:27;11.35;;;7.55;;
47749;SDS011;49810;48.160;10.812;2023-07-02T03:08:55;12.15;;;7.43;;
47749;SDS011;49810;48.160;10.812;2023-07-02T03:11:23;13.18;;;7.40;;
47749;SDS011;49810;48.160;10.812;2023-07-02T03:13:51;13.98;;;8.02;;
47749;SDS011;49810;48.160;10.812;2023-07-02T03:16:19;12.00;;;8.32;;
47749;SDS011;49810;48.160;10.812;2023-07-02T03:18:48;13.88;;;8.35;;
47749;SDS011;49810;48.160;10.812;2023-07-02T03:21:17;12.98;;;8.65;;
47749;SDS011;49810;48.160;10.812;2023-07-02T03:23:45;15.07;;;8.57;;
47749;SDS011;49810;48.160;10.812;2023-07-02T03:26:13;13.68;;;8.25;;
47749;SDS011;49810;48.160;10.812;2023-07-02T03:28:41;11.85;;;8.82;;
47749;SDS011;49810;48.160;10.812;2023-07-02T03:31:09;12.45;;;8.30;;
47749;SDS011;49810;48.160;10.812;2023-07-02T03:33:37;14.50;;;8.05;;
47749;SDS011;49810;48.160;10.812;2023-07-02T03:36:05;11.85;;;8.32;;
47749;SDS011;49810;48.160;10.812;2023-07-02T03:38:34;12.70;;;8.65;;
47749;SDS011;49810;48.160;10.812;2023-07-02T03:41:02;17.73;;;8.73;;
47749;SDS011;49810;48.160;10.812;2023-07-02T03:43:31;15.07;;;8.23;;
47749;SDS011;49810;48.160;10.812;2023-07-02T03:45:59;12.68;;;8.00;;
47749;SDS011;49810;48.160;10.812;2023-07-02T03:48:27;11.13;;;8.23;;
47749;SDS011;49810;48.160;10.812;2023-07-02T03:50:55;13.10;;;8.10;;
47749;SDS011;49810;48.160;10.812;2023-07-02T03:53:23;13.70;;;8.18;;
47749;SDS011;49810;48.160;10.812;2023-07-02T03:55:52;13.38;;;8.20;;
47749;SDS011;49810;48.160;10.812;2023-07-02T03:58:20;12.38;;;8.65;;
47749;SDS011;49810;48.160;10.812;2023-07-02T04:00:48;13.00;;;7.38;;
47749;SDS011;49810;48.160;10.812;2023-07-02T04:03:17;13.13;;;7.88;;
47749;SDS011;49810;48.160;10.812;2023-07-02T04:05:45;15.75;;;7.85;;
47749;SDS011;49810;48.160;10.812;2023-07-02T04:08:15;12.82;;;7.60;;
47749;SDS011;49810;48.160;10.812;2023-07-02T04:10:43;14.30;;;8.27;;
47749;SDS011;49810;48.160;10.812;2023-07-02T04:13:12;11.73;;;7.85;;
47749;SDS011;49810;48.160;10.812;2023-07-02T04:15:42;12.88;;;7.53;;
47749;SDS011;49810;48.160;10.812;2023-07-02T04:18:10;12.20;;;8.20;;
47749;SDS011;49810;48.160;10.812;2023-07-02T04:20:38;13.95;;;8.05;;
47749;SDS011;49810;48.160;10.812;2023-07-02T04:23:06;10.07;;;7.47;;
47749;SDS011;49810;48.160;10.812;2023-07-02T04:25:34;12.70;;;6.32;;
47749;SDS011;49810;48.160;10.812;2023-07-02T04:28:24;11.55;;;6.95;;
47749;SDS011;49810;48.160;10.812;2023-07-02T04:30:51;13.60;;;7.57;;
47749;SDS011;49810;48.160;10.812;2023-07-02T04:33:19;12.63;;;7.00;;
47749;SDS011;49810;48.160;10.812;2023-07-02T04:35:48;12.02;;;7.03;;
47749;SDS011;49810;48.160;10.812;2023-07-02T04:38:16;14.57;;;7.03;;
47749;SDS011;49810;48.160;10.812;2023-07-02T04:40:44;10.77;;;6.65;;
47749;SDS011;49810;48.160;10.812;2023-07-02T04:43:14;9.63;;;6.95;;
47749;SDS011;49810;48.160;10.812;2023-07-02T04:45:46;12.07;;;7.25;;
47749;SDS011;49810;48.160;10.812;2023-07-02T04:48:15;10.25;;;6.28;;
47749;SDS011;49810;48.160;10.812;2023-07-02T04:50:43;8.38;;;6.85;;
47749;SDS011;49810;48.160;10.812;2023-07-02T04:53:11;12.93;;;8.35;;
47749;SDS011;49810;48.160;10.812;2023-07-02T04:55:39;12.35;;;7.32;;
47749;SDS011;49810;48.160;10.812;2023-07-02T04:58:07;11.73;;;7.05;;
47749;SDS011;49810;48.160;10.812;2023-07-02T05:00:35;14.95;;;7.20;;
47749;SDS011;49810;48.160;10.812;2023-07-02T05:03:04;11.63;;;6.70;;
47749;SDS011;49810;48.160;10.812;2023-07-02T05:05:32;9.70;;;7.13;;
47749;SDS011;49810;48.160;10.812;2023-07-02T05:08:00;10.48;;;6.20;;
47749;SDS011;49810;48.160;10.812;2023-07-02T05:10:28;9.40;;;5.70;;
47749;SDS011;49810;48.160;10.812;2023-07-02T05:12:56;11.48;;;6.13;;
47749;SDS011;49810;48.160;10.812;2023-07-02T05:15:24;13.15;;;6.38;;
47749;SDS011;49810;48.160;10.812;2023-07-02T05:17:52;9.13;;;6.28;;
47749;SDS011;49810;48.160;10.812;2023-07-02T05:20:22;11.18;;;6.78;;
47749;SDS011;49810;48.160;10.812;2023-07-02T05:22:50;8.77;;;6.35;;
47749;SDS011;49810;48.160;10.812;2023-07-02T05:25:19;8.27;;;5.90;;
47749;SDS011;49810;48.160;10.812;2023-07-02T05:27:47;9.32;;;6.00;;
47749;SDS011;49810;48.160;10.812;2023-07-02T05:30:15;8.98;;;6.22;;
47749;SDS011;49810;48.160;10.812;2023-07-02T05:32:44;9.52;;;5.72;;
47749;SDS011;49810;48.160;10.812;2023-07-02T05:35:12;8.30;;;5.57;;
47749;SDS011;49810;48.160;10.812;2023-07-02T05:37:41;12.48;;;6.25;;
47749;SDS011;49810;48.160;10.812;2023-07-02T05:40:10;9.90;;;6.63;;
47749;SDS011;49810;48.160;10.812;2023-07-02T05:42:41;10.35;;;6.72;;
47749;SDS011;49810;48.160;10.812;2023-07-02T05:45:10;9.55;;;6.45;;
47749;SDS011;49810;48.160;10.812;2023-07-02T05:47:38;11.25;;;7.00;;
47749;SDS011;49810;48.160;10.812;2023-07-02T05:50:07;11.45;;;7.60;;
47749;SDS011;49810;48.160;10.812;2023-07-02T05:52:35;9.00;;;7.13;;
47749;SDS011;49810;48.160;10.812;2023-07-02T05:55:05;15.02;;;7.35;;
47749;SDS011;49810;48.160;10.812;2023-07-02T05:57:37;11.55;;;7.60;;
47749;SDS011;49810;48.160;10.812;2023-07-02T06:00:05;15.63;;;7.63;;
47749;SDS011;49810;48.160;10.812;2023-07-02T06:02:38;12.30;;;7.40;;
47749;SDS011;49810;48.160;10.812;2023-07-02T06:05:06;11.90;;;7.38;;
47749;SDS011;49810;48.160;10.812;2023-07-02T06:07:34;9.35;;;7.75;;
47749;SDS011;49810;48.160;10.812;2023-07-02T06:10:07;9.73;;;7.65;;
47749;SDS011;49810;48.160;10.812;2023-07-02T06:12:35;13.77;;;8.68;;
47749;SDS011;49810;48.160;10.812;2023-07-02T06:15:03;16.33;;;8.90;;
47749;SDS011;49810;48.160;10.812;2023-07-02T06:17:31;12.85;;;8.45;;
47749;SDS011;49810;48.160;10.812;2023-07-02T06:20:03;13.27;;;9.30;;
47749;SDS011;49810;48.160;10.812;2023-07-02T06:22:32;10.57;;;7.25;;
47749;SDS011;49810;48.160;10.812;2023-07-02T06:25:00;9.73;;;6.90;;
47749;SDS011;49810;48.160;10.812;2023-07-02T06:27:33;11.20;;;6.93;;
47749;SDS011;49810;48.160;10.812;2023-07-02T06:30:02;12.32;;;9.18;;
47749;SDS011;49810;48.160;10.812;2023-07-02T06:32:30;9.95;;;7.15;;
47749;SDS011;49810;48.160;10.812;2023-07-02T06:34:58;8.48;;;6.90;;
47749;SDS011;49810;48.160;10.812;2023-07-02T06:37:26;9.82;;;7.80;;
47749;SDS011;49810;48.160;10.812;2023-07-02T06:39:54;11.23;;;8.25;;
47749;SDS011;49810;48.160;10.812;2023-07-02T06:42:23;13.13;;;9.48;;
47749;SDS011;49810;48.160;10.812;2023-07-02T06:44:53;13.63;;;9.70;;
47749;SDS011;49810;48.160;10.812;2023-07-02T06:47:21;11.55;;;8.82;;
47749;SDS011;49810;48.160;10.812;2023-07-02T06:49:51;10.07;;;8.15;;
47749;SDS011;49810;48.160;10.812;2023-07-02T06:52:19;9.65;;;7.15;;
47749;SDS011;49810;48.160;10.812;2023-07-02T06:54:47;9.57;;;7.47;;
47749;SDS011;49810;48.160;10.812;2023-07-02T06:57:15;11.95;;;7.80;;
47749;SDS011;49810;48.160;10.812;2023-07-02T06:59:43;10.60;;;6.70;;
47749;SDS011;49810;48.160;10.812;2023-07-02T07:02:19;8.20;;;6.75;;
47749;SDS011;49810;48.160;10.812;2023-07-02T07:04:47;9.68;;;6.63;;
47749;SDS011;49810;48.160;10.812;2023-07-02T07:07:15;11.13;;;6.57;;
47749;SDS011;49810;48.160;10.812;2023-07-02T07:09:44;7.97;;;5.65;;
47749;SDS011;49810;48.160;10.812;2023-07-02T07:12:13;8.25;;;5.70;;
47749;SDS011;49810;48.160;10.812;2023-07-02T07:14:41;8.38;;;6.13;;
47749;SDS011;49810;48.160;10.812;2023-07-02T07:17:09;6.45;;;5.10;;
47749;SDS011;49810;48.160;10.812;2023-07-02T07:19:39;7.72;;;5.35;;
47749;SDS011;49810;48.160;10.812;2023-07-02T07:22:07;7.78;;;5.20;;
47749;SDS011;49810;48.160;10.812;2023-07-02T07:24:36;6.43;;;4.55;;
47749;SDS011;49810;48.160;10.812;2023-07-02T07:27:04;6.85;;;5.03;;
47749;SDS011;49810;48.160;10.812;2023-07-02T07:29:32;6.40;;;4.35;;
47749;SDS011;49810;48.160;10.812;2023-07-02T07:32:00;7.35;;;4.32;;
47749;SDS011;49810;48.160;10.812;2023-07-02T07:34:30;6.00;;;4.63;;
47749;SDS011;49810;48.160;10.812;2023-07-02T07:37:00;6.65;;;4.32;;
47749;SDS011;49810;48.160;10.812;2023-07-02T07:39:28;5.45;;;4.25;;
47749;SDS011;49810;48.160;10.812;2023-07-02T07:41:57;7.15;;;4.43;;
47749;SDS011;49810;48.160;10.812;2023-07-02T07:44:25;7.72;;;4.82;;
47749;SDS011;49810;48.160;10.812;2023-07-02T07:46:55;8.07;;;4.15;;
47749;SDS011;49810;48.160;10.812;2023-07-02T07:49:23;6.63;;;4.07;;
47749;SDS011;49810;48.160;10.812;2023-07-02T07:51:51;5.65;;;3.28;;
47749;SDS011;49810;48.160;10.812;2023-07-02T07:54:20;6.22;;;3.83;;
47749;SDS011;49810;48.160;10.812;2023-07-02T07:56:48;6.22;;;4.18;;
47749;SDS011;49810;48.160;10.812;2023-07-02T07:59:18;6.30;;;3.90;;
47749;SDS011;49810;48.160;10.812;2023-07-02T08:01:45;4.78;;;3.42;;
47749;SDS011;49810;48.160;10.812;2023-07-02T08:04:15;5.75;;;3.60;;
47749;SDS011;49810;48.160;10.812;2023-07-02T08:06:43;5.60;;;4.32;;
47749;SDS011;49810;48.160;10.812;2023-07-02T08:09:11;7.95;;;3.78;;
47749;SDS011;49810;48.160;10.812;2023-07-02T08:11:40;8.75;;;3.90;;
47749;SDS011;49810;48.160;10.812;2023-07-02T08:14:09;6.85;;;3.67;;
47749;SDS011;49810;48.160;10.812;2023-07-02T08:16:37;7.82;;;4.13;;
47749;SDS011;49810;48.160;10.812;2023-07-02T08:19:04;5.75;;;3.70;;
47749;SDS011;49810;48.160;10.812;2023-07-02T08:21:32;5.07;;;3.40;;
47749;SDS011;49810;48.160;10.812;2023-07-02T08:24:02;6.55;;;3.45;;
47749;SDS011;49810;48.160;10.812;2023-07-02T08:26:31;4.50;;;3.33;;
47749;SDS011;49810;48.160;10.812;2023-07-02T08:29:00;5.70;;;3.97;;
47749;SDS011;49810;48.160;10.812;2023-07-02T08:31:29;4.05;;;2.95;;
47749;SDS011;49810;48.160;10.812;2023-07-02T08:33:57;4.70;;;3.22;;
47749;SDS011;49810;48.160;10.812;2023-07-02T08:36:25;5.97;;;3.40;;
47749;SDS011;49810;48.160;10.812;2023-07-02T08:38:54;5.80;;;3.03;;
47749;SDS011;49810;48.160;10.812;2023-07-02T08:41:22;8.20;;;3.40;;
47749;SDS011;49810;48.160;10.812;2023-07-02T08:43:50;6.15;;;3.55;;
47749;SDS011;49810;48.160;10.812;2023-07-02T08:46:20;6.65;;;3.83;;
47749;SDS011;49810;48.160;10.812;2023-07-02T08:48:49;7.78;;;4.72;;
47749;SDS011;49810;48.160;10.812;2023-07-02T08:51:18;6.63;;;4.57;;
47749;SDS011;49810;48.160;10.812;2023-07-02T08:53:48;7.90;;;4.65;;
47749;SDS011;49810;48.160;10.812;2023-07-02T08:56:18;8.80;;;5.10;;
47749;SDS011;49810;48.160;10.812;2023-07-02T08:58:46;6.03;;;4.38;;
47749;SDS011;49810;48.160;10.812;2023-07-02T09:01:15;7.93;;;4.13;;
47749;SDS011;49810;48.160;10.812;2023-07-02T09:03:45;7.22;;;4.53;;
47749;SDS011;49810;48.160;10.812;2023-07-02T09:06:13;9.00;;;5.00;;
47749;SDS011;49810;48.160;10.812;2023-07-02T09:08:41;8.48;;;4.72;;
47749;SDS011;49810;48.160;10.812;2023-07-02T09:11:09;6.63;;;4.57;;
47749;SDS011;49810;48.160;10.812;2023-07-02T09:13:44;5.35;;;4.43;;
47749;SDS011;49810;48.160;10.812;2023-07-02T09:18:40;7.70;;;4.68;;
47749;SDS011;49810;48.160;10.812;2023-07-02T09:21:09;6.57;;;4.70;;
47749;SDS011;49810;48.160;10.812;2023-07-02T09:23:37;5.57;;;4.07;;
47749;SDS011;49810;48.160;10.812;2023-07-02T09:26:05;8.05;;;4.70;;
47749;SDS011;49810;48.160;10.812;2023-07-02T09:28:33;6.97;;;4.78;;
47749;SDS011;49810;48.160;10.812;2023-07-02T09:31:01;8.23;;;5.82;;
47749;SDS011;49810;48.160;10.812;2023-07-02T09:33:30;7.30;;;5.40;;
47749;SDS011;49810;48.160;10.812;2023-07-02T09:35:59;7.22;;;5.32;;
47749;SDS011;49810;48.160;10.812;2023-07-02T09:38:28;7.45;;;5.40;;
47749;SDS011;49810;48.160;10.812;2023-07-02T09:40:56;8.85;;;6.25;;
47749;SDS011;49810;48.160;10.812;2023-07-02T09:43:27;9.43;;;6.07;;
47749;SDS011;49810;48.160;10.812;2023-07-02T09:45:55;9.00;;;5.72;;
47749;SDS011;49810;48.160;10.812;2023-07-02T09:48:24;9.68;;;6.15;;
47749;SDS011;49810;48.160;10.812;2023-07-02T09:50:53;8.13;;;5.15;;
47749;SDS011;49810;48.160;10.812;2023-07-02T09:53:21;11.43;;;6.22;;
47749;SDS011;49810;48.160;10.812;2023-07-02T09:55:52;9.57;;;6.32;;
47749;SDS011;49810;48.160;10.812;2023-07-02T09:58:21;11.27;;;6.45;;
47749;SDS011;49810;48.160;10.812;2023-07-02T10:00:49;9.70;;;6.70;;
47749;SDS011;49810;48.160;10.812;2023-07-02T10:03:29;10.52;;;6.28;;
47749;SDS011;49810;48.160;10.812;2023-07-02T10:06:04;12.80;;;7.55;;
47749;SDS011;49810;48.160;10.812;2023-07-02T10:08:33;14.15;;;8.68;;
47749;SDS011;49810;48.160;10.812;2023-07-02T10:11:12;15.35;;;7.07;;
47749;SDS011;49810;48.160;10.812;2023-07-02T10:13:41;11.38;;;6.68;;
47749;SDS011;49810;48.160;10.812;2023-07-02T10:16:09;11.35;;;7.53;;
47749;SDS011;49810;48.160;10.812;2023-07-02T10:18:37;12.27;;;7.93;;
47749;SDS011;49810;48.160;10.812;2023-07-02T10:21:15;12.50;;;7.63;;
47749;SDS011;49810;48.160;10.812;2023-07-02T10:23:43;10.38;;;7.32;;
47749;SDS011;49810;48.160;10.812;2023-07-02T10:26:15;13.13;;;8.48;;
47749;SDS011;49810;48.160;10.812;2023-07-02T10:28:43;15.75;;;8.02;;
47749;SDS011;49810;48.160;10.812;2023-07-02T10:31:23;14.88;;;9.38;;
47749;SDS011;49810;48.160;10.812;2023-07-02T10:33:51;16.00;;;8.98;;
47749;SDS011;49810;48.160;10.812;2023-07-02T10:36:19;15.63;;;9.73;;
47749;SDS011;49810;48.160;10.812;2023-07-02T10:38:49;15.95;;;10.20;;
47749;SDS011;49810;48.160;10.812;2023-07-02T10:41:25;14.45;;;10.15;;
47749;SDS011;49810;48.160;10.812;2023-07-02T10:43:53;14.57;;;9.65;;
47749;SDS011;49810;48.160;10.812;2023-07-02T10:46:22;17.75;;;11.15;;
47749;SDS011;49810;48.160;10.812;2023-07-02T10:48:51;16.73;;;10.68;;
47749;SDS011;49810;48.160;10.812;2023-07-02T10:51:20;18.88;;;11.55;;
47749;SDS011;49810;48.160;10.812;2023-07-02T10:53:56;18.00;;;11.23;;
47749;SDS011;49810;48.160;10.812;2023-07-02T10:56:27;19.52;;;11.25;;
47749;SDS011;49810;48.160;10.812;2023-07-02T10:58:55;17.25;;;10.73;;
47749;SDS011;49810;48.160;10.812;2023-07-02T11:01:24;17.05;;;11.95;;
47749;SDS011;49810;48.160;10.812;2023-07-02T11:03:55;19.08;;;12.05;;
47749;SDS011;49810;48.160;10.812;2023-07-02T11:06:24;21.08;;;12.18;;
47749;SDS011;49810;48.160;10.812;2023-07-02T11:08:52;17.85;;;10.57;;
47749;SDS011;49810;48.160;10.812;2023-07-02T11:11:22;16.42;;;9.93;;
47749;SDS011;49810;48.160;10.812;2023-07-02T11:13:52;14.52;;;9.98;;
47749;SDS011;49810;48.160;10.812;2023-07-02T11:16:24;17.75;;;11.20;;
47749;SDS011;49810;48.160;10.812;2023-07-02T11:18:53;18.10;;;12.05;;
47749;SDS011;49810;48.160;10.812;2023-07-02T11:21:22;15.30;;;10.77;;
47749;SDS011;49810;48.160;10.812;2023-07-02T11:23:50;19.08;;;11.32;;
47749;SDS011;49810;48.160;10.812;2023-07-02T11:26:34;21.77;;;13.85;;
47749;SDS011;49810;48.160;10.812;2023-07-02T11:29:03;21.60;;;13.50;;
47749;SDS011;49810;48.160;10.812;2023-07-02T11:31:33;20.60;;;13.73;;
47749;SDS011;49810;48.160;10.812;2023-07-02T11:34:01;19.67;;;13.05;;
47749;SDS011;49810;48.160;10.812;2023-07-02T11:36:30;22.27;;;13.20;;
47749;SDS011;49810;48.160;10.812;2023-07-02T11:38:58;22.60;;;13.40;;
47749;SDS011;49810;48.160;10.812;2023-07-02T11:41:35;25.85;;;16.30;;
47749;SDS011;49810;48.160;10.812;2023-07-02T11:44:06;23.95;;;14.75;;
47749;SDS011;49810;48.160;10.812;2023-07-02T11:46:34;21.50;;;14.77;;
47749;SDS011;49810;48.160;10.812;2023-07-02T11:49:02;27.42;;;16.67;;
47749;SDS011;49810;48.160;10.812;2023-07-02T11:51:31;25.33;;;16.17;;
47749;SDS011;49810;48.160;10.812;2023-07-02T11:53:59;25.98;;;15.25;;
47749;SDS011;49810;48.160;10.812;2023-07-02T11:56:27;28.33;;;16.90;;
47749;SDS011;49810;48.160;10.812;2023-07-02T11:58:55;28.67;;;17.83;;
47749;SDS011;49810;48.160;10.812;2023-07-02T12:01:26;24.25;;;16.65;;
47749;SDS011;49810;48.160;10.812;2023-07-02T12:03:55;27.85;;;17.05;;
47749;SDS011;49810;48.160;10.812;2023-07-02T12:06:23;26.80;;;17.23;;
47749;SDS011;49810;48.160;10.812;2023-07-02T12:08:52;30.27;;;16.35;;
47749;SDS011;49810;48.160;10.812;2023-07-02T12:11:20;24.20;;;16.60;;
47749;SDS011;49810;48.160;10.812;2023-07-02T12:13:48;25.17;;;17.20;;
47749;SDS011;49810;48.160;10.812;2023-07-02T12:16:16;25.65;;;15.98;;
47749;SDS011;49810;48.160;10.812;2023-07-02T12:18:48;23.38;;;16.73;;
47749;SDS011;49810;48.160;10.812;2023-07-02T12:21:16;25.13;;;16.65;;
47749;SDS011;49810;48.160;10.812;2023-07-02T12:23:45;26.45;;;16.27;;
47749;SDS011;49810;48.160;10.812;2023-07-02T12:26:13;29.27;;;17.23;;
47749;SDS011;49810;48.160;10.812;2023-07-02T12:28:41;23.80;;;17.85;;
47749;SDS011;49810;48.160;10.812;2023-07-02T12:31:09;25.60;;;16.75;;
47749;SDS011;49810;48.160;10.812;2023-07-02T12:33:39;26.30;;;17.80;;
47749;SDS011;49810;48.160;10.812;2023-07-02T12:36:09;26.45;;;17.35;;
47749;SDS011;49810;48.160;10.812;2023-07-02T12:38:37;25.35;;;17.67;;
47749;SDS011;49810;48.160;10.812;2023-07-02T12:41:05;27.77;;;18.10;;
47749;SDS011;49810;48.160;10.812;2023-07-02T12:43:33;31.52;;;17.77;;
47749;SDS011;49810;48.160;10.812;2023-07-02T12:46:01;27.40;;;19.25;;
47749;SDS011;49810;48.160;10.812;2023-07-02T12:48:29;27.45;;;18.52;;
47749;SDS011;49810;48.160;10.812;2023-07-02T12:50:59;27.40;;;17.77;;
47749;SDS011;49810;48.160;10.812;2023-07-02T12:53:28;27.15;;;18.08;;
47749;SDS011;49810;48.160;10.812;2023-07-02T12:55:56;26.05;;;17.98;;
47749;SDS011;49810;48.160;10.812;2023-07-02T12:58:24;28.13;;;17.92;;
47749;SDS011;49810;48.160;10.812;2023-07-02T13:00:53;27.42;;;17.98;;
47749;SDS011;49810;48.160;10.812;2023-07-02T13:03:21;27.20;;;18.75;;
47749;SDS011;49810;48.160;10.812;2023-07-02T13:05:51;26.95;;;18.13;;
47749;SDS011;49810;48.160;10.812;2023-07-02T13:08:19;24.95;;;18.58;;
47749;SDS011;49810;48.160;10.812;2023-07-02T13:10:51;25.15;;;18.15;;
47749;SDS011;49810;48.160;10.812;2023-07-02T13:13:19;26.92;;;17.40;;
47749;SDS011;49810;48.160;10.812;2023-07-02T13:15:51;25.48;;;17.65;;
47749;SDS011;49810;48.160;10.812;2023-07-02T13:18:19;27.25;;;18.20;;
47749;SDS011;49810;48.160;10.812;2023-07-02T13:20:47;26.23;;;17.90;;
47749;SDS011;49810;48.160;10.812;2023-07-02T13:23:15;26.38;;;18.08;;
47749;SDS011;49810;48.160;10.812;2023-07-02T13:25:43;28.95;;;18.13;;
47749;SDS011;49810;48.160;10.812;2023-07-02T13:28:13;31.15;;;19.23;;
47749;SDS011;49810;48.160;10.812;2023-07-02T13:30:40;25.88;;;18.75;;
47749;SDS011;49810;48.160;10.812;2023-07-02T13:33:09;24.60;;;17.98;;
47749;SDS011;49810;48.160;10.812;2023-07-02T13:35:36;28.05;;;18.98;;
47749;SDS011;49810;48.160;10.812;2023-07-02T13:38:04;28.15;;;18.35;;
47749;SDS011;49810;48.160;10.812;2023-07-02T13:40:32;24.13;;;17.70;;
47749;SDS011;49810;48.160;10.812;2023-07-02T13:43:00;29.15;;;17.67;;
47749;SDS011;49810;48.160;10.812;2023-07-02T13:45:31;25.20;;;18.63;;
47749;SDS011;49810;48.160;10.812;2023-07-02T13:47:59;25.83;;;18.58;;
47749;SDS011;49810;48.160;10.812;2023-07-02T13:50:27;27.05;;;17.20;;
47749;SDS011;49810;48.160;10.812;2023-07-02T13:52:55;22.33;;;17.02;;
47749;SDS011;49810;48.160;10.812;2023-07-02T13:55:24;27.85;;;17.77;;
47749;SDS011;49810;48.160;10.812;2023-07-02T13:57:54;27.38;;;18.23;;
47749;SDS011;49810;48.160;10.812;2023-07-02T14:00:25;25.90;;;17.67;;
47749;SDS011;49810;48.160;10.812;2023-07-02T14:02:53;25.88;;;17.60;;
47749;SDS011;49810;48.160;10.812;2023-07-02T14:05:21;26.23;;;17.40;;
47749;SDS011;49810;48.160;10.812;2023-07-02T14:07:49;24.83;;;17.58;;
47749;SDS011;49810;48.160;10.812;2023-07-02T14:10:18;26.58;;;16.98;;
47749;SDS011;49810;48.160;10.812;2023-07-02T14:12:46;26.00;;;17.65;;
47749;SDS011;49810;48.160;10.812;2023-07-02T14:15:14;25.73;;;17.40;;
47749;SDS011;49810;48.160;10.812;2023-07-02T14:17:43;25.35;;;16.83;;
47749;SDS011;49810;48.160;10.812;2023-07-02T14:20:11;22.23;;;16.13;;
47749;SDS011;49810;48.160;10.812;2023-07-02T14:22:39;24.35;;;16.58;;
47749;SDS011;49810;48.160;10.812;2023-07-02T14:25:08;24.60;;;16.50;;
47749;SDS011;49810;48.160;10.812;2023-07-02T14:27:36;21.60;;;16.45;;
47749;SDS011;49810;48.160;10.812;2023-07-02T14:30:04;23.80;;;16.40;;
47749;SDS011;49810;48.160;10.812;2023-07-02T14:32:34;23.80;;;15.50;;
47749;SDS011;49810;48.160;10.812;2023-07-02T14:35:04;22.65;;;16.50;;